Time;durP1;ratioP1;P1;durP2;ratioP2;P2;SDS_P1;SDS_P2;PMS_P1;PMS_P2;Temp;Humidity;BMP_temperature;BMP_pressure;BME280_temperature;BME280_humidity;BME280_pressure;Samples;Min_cycle;Max_cycle;Signal;HPM_P1;HPM_P2
2024/03/10 00:00:24;;;;;;;28.20;14.90;;;;;;;1.12;61.60;99899.58;106401;1254;69044;-77
2024/03/10 00:02:53;;;;;;;21.40;14.20;;;;;;;1.12;61.64;99902.33;106214;1258;71690;-77
2024/03/10 00:05:22;;;;;;;26.00;14.90;;;;;;;1.12;61.71;99899.03;105731;1260;60450;-75
2024/03/10 00:07:50;;;;;;;22.10;13.90;;;;;;;1.11;61.83;99896.84;106620;1254;60460;-77
2024/03/10 00:10:18;;;;;;;24.30;14.90;;;;;;;1.11;61.91;99901.36;106028;1255;72998;-80
2024/03/10 00:12:47;;;;;;;24.50;13.70;;;;;;;1.11;61.93;99901.88;107910;1254;69004;-77
2024/03/10 00:15:19;;;;;;;20.10;13.40;;;;;;;1.11;61.97;99897.51;109195;1252;71223;-76
2024/03/10 00:17:47;;;;;;;26.40;13.30;;;;;;;1.13;61.90;99897.71;107318;1255;60414;-78
2024/03/10 00:20:15;;;;;;;21.60;14.10;;;;;;;1.13;61.80;99898.39;106353;1257;60427;-77
2024/03/10 00:22:43;;;;;;;21.70;13.40;;;;;;;1.13;62.06;99895.64;107174;1254;73873;-76
2024/03/10 00:25:15;;;;;;;20.30;12.60;;;;;;;1.12;62.14;99890.48;107010;1259;70770;-78
2024/03/10 00:27:43;;;;;;;24.70;12.90;;;;;;;1.12;62.29;99889.95;106761;1259;71526;-77
2024/03/10 00:30:11;;;;;;;22.20;14.30;;;;;;;1.11;62.49;99889.98;106642;1258;60591;-78
2024/03/10 00:32:38;;;;;;;25.30;13.60;;;;;;;1.11;62.50;99888.60;106600;1254;60471;-77
2024/03/10 00:35:06;;;;;;;19.40;12.40;;;;;;;1.11;62.75;99886.56;107056;1259;73924;-78
2024/03/10 00:37:34;;;;;;;22.00;12.80;;;;;;;1.10;62.75;99885.55;106849;1258;69003;-77
2024/03/10 00:40:05;;;;;;;24.30;12.70;;;;;;;1.10;62.87;99884.52;106482;1260;71279;-78
2024/03/10 00:42:33;;;;;;;22.40;13.00;;;;;;;1.09;63.07;99885.11;106718;1254;60437;-79
2024/03/10 00:45:01;;;;;;;22.20;12.70;;;;;;;1.08;63.27;99884.11;107635;1254;60539;-77
2024/03/10 00:47:28;;;;;;;22.50;12.30;;;;;;;1.08;63.52;99887.09;107327;1254;72266;-76
2024/03/10 00:49:56;;;;;;;19.40;11.90;;;;;;;1.08;63.66;99883.21;107196;1261;69839;-75
2024/03/10 00:52:24;;;;;;;21.00;12.60;;;;;;;1.09;63.73;99883.19;106777;1256;71502;-79
2024/03/10 00:54:51;;;;;;;23.00;12.70;;;;;;;1.09;63.74;99881.77;106431;1260;60558;-79
2024/03/10 00:57:19;;;;;;;19.80;12.10;;;;;;;1.09;63.64;99876.91;106955;1259;60359;-77
2024/03/10 00:59:46;;;;;;;20.00;12.20;;;;;;;1.09;63.89;99878.13;106440;1259;74729;-79
2024/03/10 01:02:14;;;;;;;20.90;12.70;;;;;;;1.08;63.98;99873.98;106229;1260;68885;-79
2024/03/10 01:04:42;;;;;;;20.90;11.60;;;;;;;1.07;64.05;99868.80;106153;1255;73071;-75
2024/03/10 01:07:09;;;;;;;17.30;12.00;;;;;;;1.05;64.10;99871.05;107824;1254;60428;-77
2024/03/10 01:09:37;;;;;;;24.20;12.30;;;;;;;1.04;64.16;99866.41;108393;1257;60376;-77
2024/03/10 01:12:05;;;;;;;20.40;13.00;;;;;;;1.04;64.13;99867.45;107454;1257;72517;-76
2024/03/10 01:14:33;;;;;;;22.60;12.10;;;;;;;1.04;64.21;99865.05;107508;1257;68981;-78
2024/03/10 01:17:04;;;;;;;19.70;13.00;;;;;;;1.03;64.47;99864.05;107836;1254;71521;-77
2024/03/10 01:19:33;;;;;;;22.30;12.80;;;;;;;1.03;64.46;99858.83;107587;1256;60335;-77
2024/03/10 01:22:01;;;;;;;20.60;12.60;;;;;;;1.03;64.34;99859.30;107354;1259;59751;-79
2024/03/10 01:24:29;;;;;;;20.10;12.70;;;;;;;1.03;64.44;99852.88;106528;1254;73195;-77
2024/03/10 01:26:58;;;;;;;23.60;14.30;;;;;;;1.03;64.64;99851.86;107953;1254;70119;-74
2024/03/10 01:29:26;;;;;;;22.10;13.10;;;;;;;1.03;64.67;99848.05;107570;1258;71571;-77
2024/03/10 01:31:55;;;;;;;19.30;12.90;;;;;;;1.03;64.54;99848.21;107549;1260;59235;-76
2024/03/10 01:34:23;;;;;;;21.50;13.70;;;;;;;1.02;64.66;99845.98;108171;1254;59228;-79
2024/03/10 01:36:50;;;;;;;22.40;14.20;;;;;;;1.02;64.78;99841.98;108126;1254;73897;-77
2024/03/10 01:39:18;;;;;;;21.00;13.30;;;;;;;1.00;64.73;99847.49;107917;1259;69032;-79
2024/03/10 01:41:45;;;;;;;22.10;14.00;;;;;;;0.99;65.01;99840.79;107253;1257;71162;-75
2024/03/10 01:44:13;;;;;;;21.20;14.70;;;;;;;0.98;64.87;99841.85;107225;1254;59556;-75
2024/03/10 01:46:40;;;;;;;26.00;14.10;;;;;;;0.98;65.04;99839.44;107238;1255;60476;-78
2024/03/10 01:49:08;;;;;;;25.40;14.70;;;;;;;0.96;64.98;99840.26;107528;1257;73851;-75
2024/03/10 01:51:36;;;;;;;29.20;14.10;;;;;;;0.94;65.05;99836.02;107030;1260;70631;-75
2024/03/10 01:54:06;;;;;;;25.60;13.70;;;;;;;0.92;65.09;99835.98;107401;1254;71089;-76
2024/03/10 01:56:33;;;;;;;25.20;15.90;;;;;;;0.98;65.04;99830.00;107652;1257;60266;-79
2024/03/10 01:59:01;;;;;;;21.10;13.90;;;;;;;1.06;65.05;99834.20;107820;1254;60327;-76
2024/03/10 02:01:28;;;;;;;25.00;14.90;;;;;;;1.03;65.15;99834.73;108453;1254;72063;-76
2024/03/10 02:03:56;;;;;;;25.80;15.10;;;;;;;1.01;65.16;99830.84;109181;1254;69527;-75
2024/03/10 02:06:23;;;;;;;25.00;15.70;;;;;;;0.98;65.12;99829.30;109094;1254;71690;-76
2024/03/10 02:08:51;;;;;;;27.10;15.90;;;;;;;0.95;65.22;99825.88;109365;1254;58053;-78
2024/03/10 02:11:20;;;;;;;26.30;15.90;;;;;;;0.92;65.34;99823.99;109320;1254;58793;-77
2024/03/10 02:13:48;;;;;;;26.70;15.80;;;;;;;0.89;65.48;99825.23;109390;1254;72143;-79
2024/03/10 02:16:16;;;;;;;25.20;15.30;;;;;;;0.85;65.53;99824.08;109348;1254;67749;-77
2024/03/10 02:18:44;;;;;;;25.60;16.50;;;;;;;0.81;65.85;99821.80;109179;1254;70815;-77
2024/03/10 02:21:11;;;;;;;27.30;17.40;;;;;;;0.76;65.99;99822.77;108802;1254;60418;-75
2024/03/10 02:23:48;;;;;;;26.30;16.60;;;;;;;0.74;66.24;99818.23;109127;1254;58753;-78
2024/03/10 02:26:15;;;;;;;29.00;16.50;;;;;;;0.70;66.24;99816.73;109606;1254;72665;-79
2024/03/10 02:28:46;;;;;;;30.10;18.50;;;;;;;0.68;66.33;99809.77;109330;1254;69079;-79
2024/03/10 02:47:52;;;;;;;34.90;21.40;;;;;;;0.55;67.36;99817.54;108966;1254;60460;-77
2024/03/10 02:50:20;;;;;;;35.50;19.30;;;;;;;0.51;67.25;99817.33;109086;1254;59289;-77
2024/03/10 02:52:49;;;;;;;35.00;19.20;;;;;;;0.49;67.45;99817.45;109392;1253;72547;-76
2024/03/10 02:55:22;;;;;;;32.70;18.30;;;;;;;0.52;67.43;99816.19;109332;1254;69020;-77
2024/03/10 02:57:49;;;;;;;31.10;18.90;;;;;;;0.61;67.28;99809.69;109254;1254;71402;-78
2024/03/10 03:00:17;;;;;;;34.20;19.90;;;;;;;0.59;67.19;99806.98;109074;1253;60466;-76
2024/03/10 03:02:45;;;;;;;32.70;18.20;;;;;;;0.56;67.39;99809.50;109374;1254;60940;-77
2024/03/10 03:05:19;;;;;;;31.30;18.40;;;;;;;0.52;67.58;99806.76;109510;1254;72822;-77
2024/03/10 03:07:48;;;;;;;30.00;18.70;;;;;;;0.51;67.60;99809.15;108962;1253;68818;-77
2024/03/10 03:10:16;;;;;;;33.70;19.90;;;;;;;0.48;67.71;99805.46;109162;1254;71149;-78
2024/03/10 03:12:43;;;;;;;32.80;19.50;;;;;;;0.46;67.88;99802.44;109107;1254;59381;-77
2024/03/10 03:15:11;;;;;;;32.50;19.60;;;;;;;0.49;67.90;99807.36;108868;1254;60791;-77
2024/03/10 03:17:41;;;;;;;30.10;18.00;;;;;;;0.58;67.72;99800.29;109383;1253;72553;-80
2024/03/10 03:20:15;;;;;;;33.70;18.40;;;;;;;0.59;67.50;99797.58;109460;1254;71369;-79
2024/03/10 03:22:44;;;;;;;27.70;17.50;;;;;;;0.55;67.64;99791.21;109184;1254;71258;-78
2024/03/10 03:25:13;;;;;;;31.00;17.80;;;;;;;0.53;67.61;99790.34;109292;1254;58126;-78
2024/03/10 03:27:43;;;;;;;31.90;16.90;;;;;;;0.49;67.78;99794.07;109138;1254;58865;-77
2024/03/10 03:30:11;;;;;;;29.20;17.90;;;;;;;0.48;67.78;99788.39;109164;1254;72737;-76
2024/03/10 03:32:39;;;;;;;26.30;15.70;;;;;;;0.48;67.83;99788.73;109038;1254;69168;-76
2024/03/10 03:35:11;;;;;;;27.20;16.10;;;;;;;0.47;67.77;99784.61;109145;1254;73055;-76
2024/03/10 03:37:39;;;;;;;24.60;15.10;;;;;;;0.56;67.60;99779.86;109058;1254;61603;-77
2024/03/10 03:40:07;;;;;;;34.20;17.70;;;;;;;0.61;67.37;99780.56;109157;1254;60119;-76
2024/03/10 03:42:35;;;;;;;24.70;17.70;;;;;;;0.61;67.49;99774.66;109148;1254;72939;-79
2024/03/10 03:45:07;;;;;;;25.70;15.90;;;;;;;0.59;67.35;99773.34;108900;1254;69059;-79
2024/03/10 03:47:37;;;;;;;28.20;16.40;;;;;;;0.57;67.43;99772.62;109062;1254;71080;-76
2024/03/10 03:50:05;;;;;;;27.80;17.00;;;;;;;0.55;67.50;99779.87;108873;1254;60507;-76
2024/03/10 03:52:33;;;;;;;29.40;17.80;;;;;;;0.54;67.41;99778.79;109210;1254;58893;-76
2024/03/10 03:55:01;;;;;;;25.90;16.90;;;;;;;0.53;67.57;99776.73;109389;1254;72697;-77
2024/03/10 03:57:30;;;;;;;29.60;17.10;;;;;;;0.58;67.59;99771.35;109534;1254;68992;-78
2024/03/10 03:59:58;;;;;;;24.10;14.90;;;;;;;0.69;67.10;99768.35;109510;1253;71226;-78
2024/03/10 04:02:25;;;;;;;28.30;16.40;;;;;;;0.70;66.97;99764.46;109417;1253;58112;-77
2024/03/10 04:04:54;;;;;;;28.00;15.90;;;;;;;0.68;66.93;99763.17;109281;1252;59979;-76
2024/03/10 04:07:23;;;;;;;25.00;16.10;;;;;;;0.68;66.93;99764.09;109301;1253;72429;-78
2024/03/10 04:09:50;;;;;;;24.90;15.30;;;;;;;0.68;66.94;99763.36;109428;1253;69029;-78
2024/03/10 04:12:18;;;;;;;26.20;16.10;;;;;;;0.68;66.85;99766.83;109366;1253;71798;-77
2024/03/10 04:14:46;;;;;;;23.10;15.00;;;;;;;0.68;66.78;99768.40;109506;1253;58105;-75
2024/03/10 04:17:13;;;;;;;26.90;16.40;;;;;;;0.68;66.74;99771.22;109314;1253;58942;-76
2024/03/10 04:19:41;;;;;;;25.60;18.10;;;;;;;0.67;66.78;99774.77;109396;1254;72653;-76
2024/03/10 04:22:09;;;;;;;28.50;18.90;;;;;;;0.66;66.72;99771.88;108720;1254;68742;-76
2024/03/10 04:24:39;;;;;;;31.50;19.30;;;;;;;0.64;66.67;99772.54;108050;1253;71167;-75
2024/03/10 04:27:08;;;;;;;25.30;16.10;;;;;;;0.61;66.75;99777.96;108423;1254;59260;-76
2024/03/10 04:29:37;;;;;;;24.60;16.20;;;;;;;0.64;66.78;99780.71;108130;1253;60339;-77
2024/03/10 04:32:07;;;;;;;27.60;16.60;;;;;;;0.73;66.60;99779.42;109154;1253;72640;-78
2024/03/10 04:34:38;;;;;;;25.50;15.90;;;;;;;0.72;66.35;99779.63;109181;1253;68702;-75
2024/03/10 04:37:08;;;;;;;26.20;16.80;;;;;;;0.67;66.46;99781.56;109154;1253;73786;-76
2024/03/10 04:39:43;;;;;;;26.40;17.00;;;;;;;0.63;66.70;99785.00;108666;1257;60354;-74
2024/03/10 04:42:10;;;;;;;38.30;22.90;;;;;;;0.58;66.65;99790.36;109230;1253;58803;-76
2024/03/10 04:44:38;;;;;;;28.40;17.30;;;;;;;0.54;66.65;99795.11;108270;1256;73054;-74
2024/03/10 04:47:05;;;;;;;26.50;17.00;;;;;;;0.51;66.80;99794.83;107105;1257;71155;-75
2024/03/10 04:49:33;;;;;;;26.90;16.90;;;;;;;0.48;66.79;99796.98;106936;1256;72970;-77
2024/03/10 04:52:01;;;;;;;26.40;16.70;;;;;;;0.45;66.81;99797.50;108814;1254;60539;-75
2024/03/10 04:54:29;;;;;;;33.30;18.20;;;;;;;0.41;67.10;99793.55;109441;1253;58653;-72
2024/03/10 04:56:56;;;;;;;26.60;16.20;;;;;;;0.48;66.93;99800.08;107838;1254;72692;-76
2024/03/10 04:59:24;;;;;;;25.10;16.70;;;;;;;0.55;66.76;99800.30;107899;1256;69600;-76
2024/03/10 05:01:55;;;;;;;24.90;16.80;;;;;;;0.53;66.68;99798.15;107564;1259;73727;-76
2024/03/10 05:04:22;;;;;;;25.10;16.40;;;;;;;0.51;66.82;99798.69;108296;1253;60446;-76
2024/03/10 05:06:50;;;;;;;26.80;17.30;;;;;;;0.49;66.76;99799.33;108742;1252;60290;-77
2024/03/10 05:09:18;;;;;;;26.40;18.00;;;;;;;0.48;66.93;99805.14;109242;1253;72522;-76
2024/03/10 05:11:45;;;;;;;31.00;19.00;;;;;;;0.49;66.83;99803.31;107877;1254;70609;-76
2024/03/10 05:14:13;;;;;;;25.50;16.50;;;;;;;0.51;66.87;99803.39;107089;1254;70449;-75
2024/03/10 05:16:43;;;;;;;30.20;17.90;;;;;;;0.52;66.76;99804.15;107014;1254;60607;-78
2024/03/10 05:19:11;;;;;;;31.80;17.20;;;;;;;0.54;66.75;99806.11;108628;1254;61474;-75
2024/03/10 05:21:45;;;;;;;27.30;18.10;;;;;;;0.57;66.65;99808.02;109018;1253;73904;-77
2024/03/10 05:24:15;;;;;;;29.60;18.60;;;;;;;0.62;66.68;99810.33;108786;1253;70363;-76
2024/03/10 05:26:43;;;;;;;24.00;16.20;;;;;;;0.67;66.69;99811.87;108830;1253;71309;-75
2024/03/10 05:29:11;;;;;;;23.80;16.70;;;;;;;0.73;66.35;99812.88;107618;1253;60310;-75
2024/03/10 05:31:38;;;;;;;24.80;17.10;;;;;;;0.79;66.45;99817.51;107947;1253;60825;-78
2024/03/10 05:34:06;;;;;;;25.00;17.00;;;;;;;0.85;66.05;99818.20;109215;1254;72602;-75
2024/03/10 05:36:33;;;;;;;29.10;17.70;;;;;;;0.92;66.00;99820.84;108800;1254;68898;-75
2024/03/10 05:39:01;;;;;;;30.70;18.00;;;;;;;0.99;65.86;99824.54;106673;1254;72444;-77
2024/03/10 05:41:28;;;;;;;25.50;17.30;;;;;;;1.06;65.72;99821.63;107112;1256;60416;-78
2024/03/10 05:43:56;;;;;;;24.70;16.60;;;;;;;1.11;65.45;99814.64;107889;1253;60427;-76
2024/03/10 05:46:24;;;;;;;29.00;17.20;;;;;;;1.17;65.30;99813.69;109406;1254;72465;-76
2024/03/10 05:48:51;;;;;;;27.30;17.10;;;;;;;1.24;65.21;99812.20;108392;1259;69147;-78
2024/03/10 05:51:19;;;;;;;29.60;17.70;;;;;;;1.32;64.86;99810.55;108901;1254;71427;-78
2024/03/10 05:53:46;;;;;;;25.50;16.80;;;;;;;1.41;64.73;99808.54;109070;1254;58119;-77
2024/03/10 05:56:14;;;;;;;27.70;17.20;;;;;;;1.50;64.57;99801.66;108926;1254;59072;-80
2024/03/10 05:58:42;;;;;;;27.90;17.30;;;;;;;1.59;64.40;99805.19;109263;1254;72608;-78
2024/03/10 06:01:11;;;;;;;26.00;17.40;;;;;;;1.68;64.07;99801.91;108893;1253;68943;-72
2024/03/10 06:03:40;;;;;;;26.80;17.80;;;;;;;1.78;64.01;99804.52;108409;1254;71561;-71
2024/03/10 06:06:09;;;;;;;27.80;17.40;;;;;;;1.87;63.59;99803.70;107247;1257;59303;-71
2024/03/10 06:08:37;;;;;;;32.60;18.50;;;;;;;1.97;63.45;99801.79;107478;1254;60520;-71
2024/03/10 06:11:05;;;;;;;29.90;18.30;;;;;;;2.04;63.17;99799.54;107476;1254;73053;-72
2024/03/10 06:13:33;;;;;;;28.10;17.50;;;;;;;2.13;62.90;99797.11;107065;1256;68717;-71
2024/03/10 06:16:02;;;;;;;26.30;17.10;;;;;;;2.19;62.64;99795.80;107331;1256;72693;-72
2024/03/10 06:25:22;;;;;;;31.00;17.80;;;;;;;2.26;62.46;99794.41;107691;1254;60508;-72
2024/03/10 06:26:55;;;;;;;30.10;19.20;;;;;;;2.45;61.96;99805.74;106248;1259;70793;-75
2024/03/10 06:29:23;;;;;;;30.40;17.60;;;;;;;2.53;61.81;99811.42;106234;1259;72453;-75
2024/03/10 06:31:51;;;;;;;30.60;18.90;;;;;;;2.61;61.55;99811.45;105992;1259;60344;-75
2024/03/10 06:34:19;;;;;;;26.50;18.20;;;;;;;2.67;61.19;99813.05;105830;1254;60558;-73
2024/03/10 06:36:50;;;;;;;29.40;18.80;;;;;;;2.72;61.27;99814.05;105802;1254;72540;-74
2024/03/10 06:39:19;;;;;;;26.50;18.10;;;;;;;2.78;61.03;99815.73;106064;1254;70158;-72
2024/03/10 06:41:47;;;;;;;34.50;18.70;;;;;;;2.84;60.89;99820.00;106352;1256;72631;-74
2024/03/10 06:44:17;;;;;;;33.50;18.30;;;;;;;2.89;60.79;99822.23;105648;1253;60377;-74
2024/03/10 06:46:45;;;;;;;28.60;19.20;;;;;;;2.96;60.60;99821.69;105601;1256;60338;-73
2024/03/10 06:49:14;;;;;;;29.70;18.50;;;;;;;3.03;60.46;99825.73;105439;1254;72564;-74
2024/03/10 06:51:42;;;;;;;32.50;19.70;;;;;;;3.09;60.34;99827.48;105639;1259;69171;-73
2024/03/10 06:54:10;;;;;;;28.10;18.80;;;;;;;3.14;60.30;99831.14;105132;1259;379197;-75
2024/03/10 06:57:34;;;;;;;27.90;18.10;;;;;;;3.26;60.08;99835.15;102341;1292;600990;-74
2024/03/10 07:00:02;;;;;;;31.40;19.60;;;;;;;3.34;59.99;99832.93;104570;1273;59193;-75
2024/03/10 07:02:30;;;;;;;31.10;19.60;;;;;;;3.46;59.93;99834.29;104910;1271;60026;-74
2024/03/10 07:05:02;;;;;;;31.80;19.70;;;;;;;3.58;59.73;99838.30;104921;1266;70428;-75
2024/03/10 07:07:30;;;;;;;31.90;21.10;;;;;;;3.73;59.58;99838.66;105182;1266;70182;-74
2024/03/10 07:09:58;;;;;;;29.80;19.30;;;;;;;3.84;59.22;99839.18;104890;1268;70499;-75
2024/03/10 07:12:26;;;;;;;26.70;19.60;;;;;;;3.95;58.82;99837.11;105028;1263;196471;-73
2024/03/10 07:14:53;;;;;;;31.40;19.80;;;;;;;4.06;58.68;99837.27;105030;1269;59456;-74
2024/03/10 07:17:21;;;;;;;28.80;19.60;;;;;;;4.18;58.62;99837.17;105201;1266;73030;-73
2024/03/10 07:19:48;;;;;;;31.60;20.20;;;;;;;4.30;58.18;99833.17;105236;1266;69035;-73
2024/03/10 07:22:17;;;;;;;31.40;18.50;;;;;;;4.41;57.90;99838.27;105843;1260;72719;-74
2024/03/10 07:24:44;;;;;;;30.40;19.20;;;;;;;4.52;57.86;99836.66;105580;1262;59714;-73
2024/03/10 07:27:12;;;;;;;30.30;19.10;;;;;;;4.65;57.60;99838.58;105434;1254;61250;-73
2024/03/10 07:29:41;;;;;;;27.60;18.40;;;;;;;4.81;57.60;99846.38;105534;1257;71574;-73
2024/03/10 07:32:09;;;;;;;28.30;18.40;;;;;;;4.92;57.02;99845.41;105576;1265;68864;-73
2024/03/10 07:34:38;;;;;;;27.70;18.30;;;;;;;5.01;56.55;99849.42;107322;1256;72350;-75
2024/03/10 07:37:06;;;;;;;26.00;18.40;;;;;;;5.08;56.31;99847.92;106571;1259;59704;-75
2024/03/10 07:39:34;;;;;;;26.00;18.60;;;;;;;5.12;56.11;99848.45;105303;1256;60040;-72
2024/03/10 07:42:03;;;;;;;27.40;18.10;;;;;;;5.20;56.37;99850.98;105292;1262;73101;-72
2024/03/10 07:44:31;;;;;;;32.40;18.60;;;;;;;5.28;56.07;99849.86;105260;1261;69098;-76
2024/03/10 07:46:59;;;;;;;28.30;19.80;;;;;;;5.39;55.60;99846.38;105350;1262;71797;-76
2024/03/10 07:49:27;;;;;;;32.10;21.40;;;;;;;5.46;55.18;99843.48;105224;1261;59673;-75
2024/03/10 07:51:55;;;;;;;31.40;19.30;;;;;;;5.48;55.01;99846.61;105367;1260;59559;-78
2024/03/10 07:54:22;;;;;;;31.30;19.70;;;;;;;5.50;55.09;99850.01;105343;1262;75231;-76
2024/03/10 07:56:50;;;;;;;27.90;19.60;;;;;;;5.55;55.08;99846.39;105879;1256;70173;-77
2024/03/10 07:59:21;;;;;;;38.10;26.90;;;;;;;5.71;55.10;99850.42;105576;1259;75085;-77
2024/03/10 08:01:50;;;;;;;39.80;28.30;;;;;;;5.87;55.13;99848.19;106278;1262;59613;-76
2024/03/10 08:04:18;;;;;;;46.00;34.90;;;;;;;6.02;54.68;99844.55;105780;1263;59525;-78
2024/03/10 08:06:46;;;;;;;38.40;26.70;;;;;;;6.15;54.42;99846.61;105794;1257;75232;-77
2024/03/10 08:09:15;;;;;;;32.90;23.50;;;;;;;6.29;53.96;99851.87;106036;1262;69618;-78
2024/03/10 08:11:44;;;;;;;30.20;21.00;;;;;;;6.41;53.83;99853.77;105763;1256;72886;-75
2024/03/10 08:14:11;;;;;;;32.20;23.10;;;;;;;6.49;53.35;99855.48;105623;1262;59625;-74
2024/03/10 08:16:40;;;;;;;31.40;22.50;;;;;;;6.54;53.33;99854.56;105504;1257;59587;-73
2024/03/10 08:19:08;;;;;;;30.70;22.50;;;;;;;6.66;53.18;99853.65;105693;1256;73750;-75
2024/03/10 08:21:36;;;;;;;30.60;20.80;;;;;;;6.79;53.05;99852.58;105668;1256;70187;-73
2024/03/10 08:24:04;;;;;;;29.70;21.60;;;;;;;6.96;52.95;99849.48;105487;1264;74680;-75
2024/03/10 08:26:32;;;;;;;31.40;20.20;;;;;;;7.15;52.52;99856.87;105842;1259;59641;-74
2024/03/10 08:29:00;;;;;;;25.00;18.30;;;;;;;7.30;52.09;99858.63;106463;1256;61337;-74
2024/03/10 08:31:27;;;;;;;29.20;19.50;;;;;;;7.45;52.02;99863.52;106629;1261;71471;-74
2024/03/10 08:33:55;;;;;;;28.40;19.40;;;;;;;7.63;51.97;99867.14;105481;1261;68840;-75
2024/03/10 08:36:22;;;;;;;26.50;18.80;;;;;;;7.82;51.49;99869.90;105679;1256;72725;-74
2024/03/10 08:38:50;;;;;;;24.50;17.00;;;;;;;7.99;50.73;99873.55;105292;1259;59704;-73
2024/03/10 08:41:18;;;;;;;24.10;17.00;;;;;;;8.12;50.60;99872.55;105637;1262;59554;-74
2024/03/10 08:43:45;;;;;;;23.10;15.60;;;;;;;8.25;50.11;99873.23;105626;1256;70851;-72
2024/03/10 08:46:13;;;;;;;22.60;16.30;;;;;;;8.34;49.72;99873.15;105303;1262;71348;-74
2024/03/10 08:48:41;;;;;;;24.20;16.90;;;;;;;8.48;49.70;99878.91;105565;1261;72662;-74
2024/03/10 08:51:08;;;;;;;21.20;15.20;;;;;;;8.64;49.45;99878.36;105678;1259;59752;-74
2024/03/10 08:53:37;;;;;;;24.90;16.30;;;;;;;8.82;49.37;99881.91;105794;1256;59614;-73
2024/03/10 08:56:05;;;;;;;26.50;15.70;;;;;;;9.04;48.76;99882.94;105801;1257;72397;-73
2024/03/10 08:58:35;;;;;;;20.80;14.90;;;;;;;9.19;48.35;99887.03;106256;1256;69186;-74
2024/03/10 09:01:04;;;;;;;28.00;16.30;;;;;;;9.33;47.84;99882.60;105553;1262;74910;-73
2024/03/10 09:03:35;;;;;;;24.80;17.40;;;;;;;9.47;47.94;99882.73;105602;1262;59743;-74
2024/03/10 09:06:04;;;;;;;23.60;16.00;;;;;;;9.72;47.49;99885.50;105735;1261;59615;-73
2024/03/10 09:08:32;;;;;;;25.10;16.70;;;;;;;9.98;46.91;99885.27;105637;1262;73478;-73
2024/03/10 09:11:00;;;;;;;24.20;14.70;;;;;;;10.25;46.16;99889.72;105376;1262;70199;-74
2024/03/10 09:13:31;;;;;;;20.50;12.20;;;;;;;10.57;45.55;99895.23;105466;1260;72750;-74
2024/03/10 09:16:02;;;;;;;18.70;12.70;;;;;;;10.98;44.37;99888.27;105261;1257;59623;-74
2024/03/10 09:18:29;;;;;;;21.60;13.20;;;;;;;11.47;43.57;99886.85;105327;1257;59736;-75
2024/03/10 09:20:57;;;;;;;19.70;13.10;;;;;;;12.00;43.14;99889.11;105336;1256;73157;-74
2024/03/10 09:23:25;;;;;;;21.70;14.10;;;;;;;12.57;42.22;99891.11;106481;1256;72476;-73
2024/03/10 09:25:57;;;;;;;17.20;12.60;;;;;;;13.16;41.57;99888.24;106130;1261;74086;-75
2024/03/10 09:28:26;;;;;;;17.30;12.10;;;;;;;13.79;40.52;99887.98;105452;1262;60189;-74
2024/03/10 09:30:55;;;;;;;14.70;11.70;;;;;;;14.36;39.34;99886.94;105432;1256;59696;-74
2024/03/10 09:33:23;;;;;;;17.30;11.70;;;;;;;14.87;38.62;99885.16;105861;1260;73068;-72
2024/03/10 09:35:55;;;;;;;17.40;12.70;;;;;;;15.40;37.81;99883.54;105713;1256;69196;-74
2024/03/10 09:38:23;;;;;;;15.20;11.50;;;;;;;15.90;37.17;99881.98;105613;1256;72652;-74
2024/03/10 09:40:51;;;;;;;18.10;12.80;;;;;;;16.39;36.47;99879.36;105555;1262;59602;-75
2024/03/10 09:43:18;;;;;;;15.40;12.00;;;;;;;16.83;35.80;99880.52;105606;1257;62192;-76
2024/03/10 09:45:51;;;;;;;15.40;12.00;;;;;;;17.23;35.10;99876.68;105752;1254;71844;-75
2024/03/10 09:48:22;;;;;;;16.60;11.30;;;;;;;17.54;34.45;99878.52;105824;1261;69940;-74
2024/03/10 09:50:49;;;;;;;14.80;10.10;;;;;;;17.97;33.74;99882.84;105518;1265;71342;-76
2024/03/10 09:53:18;;;;;;;11.50;9.70;;;;;;;18.41;32.80;99882.30;105535;1257;62386;-75
2024/03/10 09:55:49;;;;;;;12.70;9.70;;;;;;;18.71;32.65;99883.92;105637;1262;62386;-74
2024/03/10 09:58:19;;;;;;;13.90;10.20;;;;;;;19.11;32.31;99884.50;105673;1257;75244;-72
2024/03/10 10:01:04;;;;;;;12.70;10.10;;;;;;;19.56;31.54;99881.23;105594;1256;70264;-75
2024/03/10 10:03:32;;;;;;;12.30;10.20;;;;;;;19.97;31.36;99875.09;105274;1261;74761;-72
2024/03/10 10:06:01;;;;;;;15.40;11.40;;;;;;;20.42;30.79;99874.03;105684;1260;60281;-73
2024/03/10 10:08:29;;;;;;;14.30;11.30;;;;;;;20.84;30.42;99874.27;105605;1256;59679;-76
2024/03/10 10:11:00;;;;;;;11.40;9.70;;;;;;;21.23;29.79;99878.15;105758;1257;72911;-76
2024/03/10 10:13:28;;;;;;;14.60;10.70;;;;;;;21.44;29.31;99872.21;105647;1262;71077;-74
2024/03/10 10:15:57;;;;;;;13.00;11.10;;;;;;;21.61;29.02;99872.98;106002;1256;74815;-74
2024/03/10 10:18:27;;;;;;;13.80;11.20;;;;;;;21.75;28.84;99872.29;107123;1259;59660;-76
2024/03/10 10:20:58;;;;;;;12.80;10.60;;;;;;;21.97;28.49;99876.30;105929;1260;60257;-76
2024/03/10 10:23:26;;;;;;;13.90;11.20;;;;;;;22.04;28.17;99868.92;105734;1261;73801;-77
2024/03/10 10:25:54;;;;;;;12.20;9.70;;;;;;;22.17;28.18;99871.14;105597;1260;72413;-76
2024/03/10 10:28:22;;;;;;;12.30;9.50;;;;;;;22.42;27.47;99867.61;105626;1259;70890;-77
2024/03/10 10:30:50;;;;;;;14.10;10.50;;;;;;;22.48;27.44;99866.73;105493;1258;60392;-74
2024/03/10 10:33:18;;;;;;;11.40;8.80;;;;;;;22.71;27.52;99861.57;105279;1256;60546;-75
2024/03/10 10:35:46;;;;;;;13.30;10.30;;;;;;;23.20;27.21;99863.17;105506;1262;75400;-75
2024/03/10 10:38:14;;;;;;;10.90;9.70;;;;;;;23.67;26.74;99860.41;105326;1257;70745;-75
2024/03/10 10:40:54;;;;;;;12.20;9.30;;;;;;;23.99;26.35;99863.65;105509;1258;72151;-73
2024/03/10 10:43:22;;;;;;;12.40;9.90;;;;;;;24.25;26.30;99857.95;105329;1262;59675;-73
2024/03/10 10:45:50;;;;;;;11.30;9.10;;;;;;;24.54;26.04;99862.34;105234;1257;60992;-75
2024/03/10 10:48:18;;;;;;;10.10;8.10;;;;;;;24.79;25.41;99858.00;105611;1262;75209;-75
2024/03/10 10:50:47;;;;;;;9.60;7.90;;;;;;;24.97;25.17;99856.30;105314;1262;69016;-75
2024/03/10 10:53:16;;;;;;;8.40;7.20;;;;;;;25.09;24.83;99859.63;105564;1264;73627;-76
2024/03/10 10:55:45;;;;;;;12.30;7.70;;;;;;;25.17;24.78;99857.72;105718;1257;59723;-72
2024/03/10 10:58:16;;;;;;;10.20;7.90;;;;;;;25.27;24.57;99856.41;105290;1263;62199;-73
2024/03/10 11:00:53;;;;;;;10.90;8.70;;;;;;;25.33;24.44;99859.66;105769;1258;71978;-73
2024/03/10 11:03:28;;;;;;;11.10;9.40;;;;;;;25.43;24.45;99855.75;105973;1263;73331;-70
2024/03/10 11:06:02;;;;;;;11.10;10.00;;;;;;;25.61;24.25;99853.06;105910;1256;74646;-74
2024/03/10 11:08:37;;;;;;;9.60;8.50;;;;;;;25.68;24.24;99848.90;105585;1261;62326;-75
2024/03/10 11:11:05;;;;;;;11.20;8.60;;;;;;;25.82;24.33;99844.06;105682;1262;60927;-75
2024/03/10 11:13:33;;;;;;;10.20;8.80;;;;;;;26.01;23.92;99849.48;105689;1257;74934;-75
2024/03/10 11:16:11;;;;;;;10.00;8.40;;;;;;;25.99;23.73;99846.17;105409;1260;71362;-75
2024/03/10 11:18:43;;;;;;;12.00;9.50;;;;;;;26.12;23.72;99847.51;105825;1259;74690;-73
2024/03/10 11:21:12;;;;;;;9.60;8.60;;;;;;;26.13;23.63;99846.48;105177;1257;60616;-72
2024/03/10 11:23:43;;;;;;;9.60;8.20;;;;;;;26.10;23.56;99845.42;105326;1257;60449;-73
2024/03/10 11:26:20;;;;;;;10.30;8.90;;;;;;;26.10;23.69;99845.92;105491;1259;72792;-74
2024/03/10 11:28:54;;;;;;;11.20;8.60;;;;;;;26.04;23.48;99848.23;105456;1259;68882;-71
2024/03/10 11:31:22;;;;;;;10.60;9.20;;;;;;;25.95;23.64;99845.34;105642;1259;72996;-73
2024/03/10 11:33:51;;;;;;;11.60;8.90;;;;;;;26.03;23.52;99843.45;105683;1259;61023;-72
2024/03/10 11:36:24;;;;;;;10.00;9.00;;;;;;;26.00;23.59;99848.89;105696;1260;60584;-72
2024/03/10 11:38:52;;;;;;;9.30;8.30;;;;;;;26.08;23.46;99855.50;105557;1260;74090;-75
2024/03/10 11:41:20;;;;;;;10.50;9.40;;;;;;;26.21;23.49;99856.35;105667;1256;70155;-72
2024/03/10 11:43:48;;;;;;;9.50;8.60;;;;;;;26.42;23.31;99856.60;105524;1256;74855;-73
2024/03/10 11:46:33;;;;;;;12.40;8.20;;;;;;;26.63;23.06;99856.38;105778;1259;60542;-73